Kempsey, New South Wales

2:02 PM AEDT on December 23, 2014 (GMT +1100)
South Kempsey | Change Station
CLOSE
Current Station
Personal Weather Station
Location: SOUTH KEMPSEY, NEW SOUTH WALES
Elevation: 144 ft
Nearby Weather Stations

Elev 144 ft 31.11 °S, 152.87 °E | Updated 3 seconds ago

Clear
Clear
78.3 °F
Feels Like 80 °F
N
4.9
Wind Variable Wind from North
Gusts 7.4 mph

Today
High -- | Low -- °F
--% Chance of Precip.
Yesterday
High -- | Low -- °F
Precip. -- in
5:42 AM 7:52 PM
New Moon, 2% visible
Pressure 29.95 in
Visibility -9999.0 miles
Clouds
Heat Index 80 °F
Dew Point 61 °F
Humidity 55%
Rainfall 0.00 in
Snow Depth Not available.
UV 1.0 out of 12
Pollen Not available.
Air Quality Not available.
Flu Activity Not available.
METAR YTRE 230200Z AUTO 03007KT //// // NCD 25/17 Q1014

More Conditions Fewer Conditions

Pressure 29.95 in
Visibility -9999.0 miles
Clouds
Heat Index 80 °F
Dew Point 61 °F
Humidity 55%
Rainfall 0.00 in
Snow Depth Not available.
UV 1.0 out of 12
Pollen Not available.
Air Quality Not available.
Flu Activity Not available.
METAR YTRE 230200Z AUTO 03007KT //// // NCD 25/17 Q1014

More Conditions Fewer Conditions

10-Day Weather Forecast

Almanac

Astronomy

Dec. 23, 2014 Rise Set
Actual Time
Civil Twilight
Nautical Twilight
Astronomical Twilight
Moon
Length of Visible Light
Length of Day
Tomorrow will be .
, % of the Moon is Illuminated

Today's Extremes

Country Highs Country Lows

Community

WunderPhotos

Upload Photos

1,779,763 photos uploaded!

WunderBlogs® & News

Nearby

Air Quality

  Air Quality AQ Index Pollutant
Not available.

Snow Depth

Station Depth Elevation

Earthquake Activity

City Distance Mag. Time & Date
Minimum magnitude displayed is 2.5.

Coastal Water Temperatures

Place Temperature

Nearby Weather Stations